Portada
METAR-TAF:

METAR-TAF

Aeroports :

Kélibia, Tunísia

latitud: 36-51N, longitud: 011-05E, altitud: 29 m

Observació

L'informe es va fer fa 16 hores i 49 minuts, a les 14:00 UTC
Vent 5 kt amb direcció variable
Temperatura 14°C
Humitat 72%
Pressió 1007 hPa
Visibilitat 10 km o més
Núvols disperses a una alçada de 1600 ft

METAR: DTTL 201400Z VRB05KT 9999 SCT016 14/09 Q1007

Hora: 07:49 (06:49 UTC)


TAF: manca

Observacions i pronòstics meteorològics de més de 4000 aeroports (METAR i TAF).

Les estacions disponibles són els punts grocs i vermells al mapa.

Posi el ratolí al punt desitjat per veure el nom de l'estació.

Feu clic per veure les observacions i els pronòstics meteorològics.

Per canviar el mapa: feu clic els botons verds amb una creu de color negre per apropar; al botó verd amb un guió per allunyar la imatge; o en les fletxes verdes per a mapes adjacents.


METAR-TAF: